sensor_id;sensor_type;location;lat;lon;timestamp;P1;durP1;ratioP1;P2;durP2;ratioP2
20945;SDS011;10632;51.276;7.116;2022-10-31T00:01:52;1.73;;;0.73;;
20945;SDS011;10632;51.276;7.116;2022-10-31T00:04:18;2.88;;;1.55;;
20945;SDS011;10632;51.276;7.116;2022-10-31T00:06:45;6.72;;;1.13;;
20945;SDS011;10632;51.276;7.116;2022-10-31T00:09:12;3.70;;;1.20;;
20945;SDS011;10632;51.276;7.116;2022-10-31T00:11:40;10.07;;;1.80;;
20945;SDS011;10632;51.276;7.116;2022-10-31T00:14:07;3.97;;;1.13;;
20945;SDS011;10632;51.276;7.116;2022-10-31T00:16:34;2.63;;;1.20;;
20945;SDS011;10632;51.276;7.116;2022-10-31T00:19:03;3.20;;;1.35;;
20945;SDS011;10632;51.276;7.116;2022-10-31T00:21:32;4.15;;;1.63;;
20945;SDS011;10632;51.276;7.116;2022-10-31T00:23:59;4.07;;;1.25;;
20945;SDS011;10632;51.276;7.116;2022-10-31T00:26:26;5.70;;;1.58;;
20945;SDS011;10632;51.276;7.116;2022-10-31T00:28:55;2.28;;;1.05;;
20945;SDS011;10632;51.276;7.116;2022-10-31T00:31:22;2.88;;;1.48;;
20945;SDS011;10632;51.276;7.116;2022-10-31T00:33:49;14.98;;;1.63;;
20945;SDS011;10632;51.276;7.116;2022-10-31T00:36:17;3.20;;;1.40;;
20945;SDS011;10632;51.276;7.116;2022-10-31T00:38:45;5.90;;;1.50;;
20945;SDS011;10632;51.276;7.116;2022-10-31T00:41:13;2.00;;;0.55;;
20945;SDS011;10632;51.276;7.116;2022-10-31T00:43:43;2.92;;;1.20;;
20945;SDS011;10632;51.276;7.116;2022-10-31T00:46:12;2.38;;;1.10;;
20945;SDS011;10632;51.276;7.116;2022-10-31T00:48:39;3.85;;;1.33;;
20945;SDS011;10632;51.276;7.116;2022-10-31T00:51:06;3.88;;;1.30;;
20945;SDS011;10632;51.276;7.116;2022-10-31T00:53:33;3.90;;;1.42;;
20945;SDS011;10632;51.276;7.116;2022-10-31T00:56:00;4.88;;;1.45;;
20945;SDS011;10632;51.276;7.116;2022-10-31T00:58:27;5.05;;;1.30;;
20945;SDS011;10632;51.276;7.116;2022-10-31T01:00:54;8.38;;;1.48;;
20945;SDS011;10632;51.276;7.116;2022-10-31T01:03:23;4.32;;;1.55;;
20945;SDS011;10632;51.276;7.116;2022-10-31T01:05:56;4.68;;;1.60;;
20945;SDS011;10632;51.276;7.116;2022-10-31T01:08:23;6.00;;;1.67;;
20945;SDS011;10632;51.276;7.116;2022-10-31T01:10:57;3.05;;;1.15;;
20945;SDS011;10632;51.276;7.116;2022-10-31T01:13:31;5.75;;;1.65;;
20945;SDS011;10632;51.276;7.116;2022-10-31T01:15:58;4.72;;;1.17;;
20945;SDS011;10632;51.276;7.116;2022-10-31T01:18:27;3.13;;;1.25;;
20945;SDS011;10632;51.276;7.116;2022-10-31T01:20:58;6.90;;;1.50;;
20945;SDS011;10632;51.276;7.116;2022-10-31T01:23:30;3.45;;;1.50;;
20945;SDS011;10632;51.276;7.116;2022-10-31T01:26:07;4.72;;;1.52;;
20945;SDS011;10632;51.276;7.116;2022-10-31T01:28:36;3.83;;;1.58;;
20945;SDS011;10632;51.276;7.116;2022-10-31T01:31:06;4.18;;;1.85;;
20945;SDS011;10632;51.276;7.116;2022-10-31T01:33:36;3.42;;;1.27;;
20945;SDS011;10632;51.276;7.116;2022-10-31T01:36:10;10.10;;;1.88;;
20945;SDS011;10632;51.276;7.116;2022-10-31T01:38:39;3.67;;;1.60;;
20945;SDS011;10632;51.276;7.116;2022-10-31T01:41:06;3.75;;;1.35;;
20945;SDS011;10632;51.276;7.116;2022-10-31T01:43:42;4.78;;;1.58;;
20945;SDS011;10632;51.276;7.116;2022-10-31T01:46:13;7.95;;;1.92;;
20945;SDS011;10632;51.276;7.116;2022-10-31T01:48:43;3.80;;;1.30;;
20945;SDS011;10632;51.276;7.116;2022-10-31T01:51:10;2.13;;;1.00;;
20945;SDS011;10632;51.276;7.116;2022-10-31T01:53:39;3.08;;;1.05;;
20945;SDS011;10632;51.276;7.116;2022-10-31T01:56:07;4.85;;;1.70;;
20945;SDS011;10632;51.276;7.116;2022-10-31T01:58:35;7.18;;;1.27;;
20945;SDS011;10632;51.276;7.116;2022-10-31T02:01:02;4.55;;;1.50;;
20945;SDS011;10632;51.276;7.116;2022-10-31T02:03:30;3.80;;;1.33;;
20945;SDS011;10632;51.276;7.116;2022-10-31T02:05:59;3.75;;;1.27;;
20945;SDS011;10632;51.276;7.116;2022-10-31T02:08:27;3.60;;;1.35;;
20945;SDS011;10632;51.276;7.116;2022-10-31T02:10:56;2.20;;;1.20;;
20945;SDS011;10632;51.276;7.116;2022-10-31T02:13:24;2.55;;;0.90;;
20945;SDS011;10632;51.276;7.116;2022-10-31T02:15:52;4.18;;;1.63;;
20945;SDS011;10632;51.276;7.116;2022-10-31T02:18:21;4.43;;;1.40;;
20945;SDS011;10632;51.276;7.116;2022-10-31T02:20:54;3.90;;;1.35;;
20945;SDS011;10632;51.276;7.116;2022-10-31T02:23:43;2.72;;;1.20;;
20945;SDS011;10632;51.276;7.116;2022-10-31T02:26:41;4.80;;;1.40;;
20945;SDS011;10632;51.276;7.116;2022-10-31T02:32:30;4.45;;;1.30;;
20945;SDS011;10632;51.276;7.116;2022-10-31T02:35:09;4.32;;;1.77;;
20945;SDS011;10632;51.276;7.116;2022-10-31T02:37:43;5.28;;;1.50;;
20945;SDS011;10632;51.276;7.116;2022-10-31T02:40:15;5.68;;;1.20;;
20945;SDS011;10632;51.276;7.116;2022-10-31T02:42:50;3.00;;;0.95;;
20945;SDS011;10632;51.276;7.116;2022-10-31T02:45:25;7.47;;;1.58;;
20945;SDS011;10632;51.276;7.116;2022-10-31T02:47:59;3.25;;;1.58;;
20945;SDS011;10632;51.276;7.116;2022-10-31T02:50:30;11.73;;;1.55;;
20945;SDS011;10632;51.276;7.116;2022-10-31T02:53:00;6.38;;;1.75;;
20945;SDS011;10632;51.276;7.116;2022-10-31T02:58:17;6.72;;;1.60;;
20945;SDS011;10632;51.276;7.116;2022-10-31T03:00:51;4.30;;;1.63;;
20945;SDS011;10632;51.276;7.116;2022-10-31T03:03:36;6.25;;;1.73;;
20945;SDS011;10632;51.276;7.116;2022-10-31T03:06:06;3.70;;;1.58;;
20945;SDS011;10632;51.276;7.116;2022-10-31T03:08:41;5.72;;;1.55;;
20945;SDS011;10632;51.276;7.116;2022-10-31T03:11:14;3.05;;;1.45;;
20945;SDS011;10632;51.276;7.116;2022-10-31T03:13:45;4.15;;;1.52;;
20945;SDS011;10632;51.276;7.116;2022-10-31T03:16:16;7.55;;;1.77;;
20945;SDS011;10632;51.276;7.116;2022-10-31T03:18:52;4.35;;;1.65;;
20945;SDS011;10632;51.276;7.116;2022-10-31T03:21:23;2.63;;;1.33;;
20945;SDS011;10632;51.276;7.116;2022-10-31T03:23:56;4.15;;;1.15;;
20945;SDS011;10632;51.276;7.116;2022-10-31T03:26:25;3.97;;;1.58;;
20945;SDS011;10632;51.276;7.116;2022-10-31T03:28:55;4.43;;;1.60;;
20945;SDS011;10632;51.276;7.116;2022-10-31T03:31:27;3.08;;;1.33;;
20945;SDS011;10632;51.276;7.116;2022-10-31T03:34:03;5.45;;;1.70;;
20945;SDS011;10632;51.276;7.116;2022-10-31T03:36:33;2.67;;;1.20;;
20945;SDS011;10632;51.276;7.116;2022-10-31T03:39:02;5.28;;;1.90;;
20945;SDS011;10632;51.276;7.116;2022-10-31T03:41:32;4.65;;;2.15;;
20945;SDS011;10632;51.276;7.116;2022-10-31T03:44:04;3.45;;;1.52;;
20945;SDS011;10632;51.276;7.116;2022-10-31T03:46:34;3.50;;;1.20;;
20945;SDS011;10632;51.276;7.116;2022-10-31T03:49:03;4.90;;;1.45;;
20945;SDS011;10632;51.276;7.116;2022-10-31T03:51:32;5.18;;;2.17;;
20945;SDS011;10632;51.276;7.116;2022-10-31T03:54:04;3.22;;;1.40;;
20945;SDS011;10632;51.276;7.116;2022-10-31T03:56:37;4.95;;;1.80;;
20945;SDS011;10632;51.276;7.116;2022-10-31T03:59:10;3.83;;;1.52;;
20945;SDS011;10632;51.276;7.116;2022-10-31T04:01:43;7.43;;;1.90;;
20945;SDS011;10632;51.276;7.116;2022-10-31T04:04:14;5.68;;;1.80;;
20945;SDS011;10632;51.276;7.116;2022-10-31T04:06:42;5.43;;;2.08;;
20945;SDS011;10632;51.276;7.116;2022-10-31T04:09:12;4.20;;;1.58;;
20945;SDS011;10632;51.276;7.116;2022-10-31T04:11:42;2.22;;;1.17;;
20945;SDS011;10632;51.276;7.116;2022-10-31T04:14:12;4.43;;;1.45;;
20945;SDS011;10632;51.276;7.116;2022-10-31T04:16:39;4.20;;;1.85;;
20945;SDS011;10632;51.276;7.116;2022-10-31T04:19:11;4.20;;;1.60;;
20945;SDS011;10632;51.276;7.116;2022-10-31T04:21:40;13.23;;;1.90;;
20945;SDS011;10632;51.276;7.116;2022-10-31T04:24:08;3.35;;;1.10;;
20945;SDS011;10632;51.276;7.116;2022-10-31T04:26:35;3.20;;;1.50;;
20945;SDS011;10632;51.276;7.116;2022-10-31T04:29:02;4.13;;;1.55;;
20945;SDS011;10632;51.276;7.116;2022-10-31T04:31:29;7.35;;;1.52;;
20945;SDS011;10632;51.276;7.116;2022-10-31T04:33:56;3.42;;;1.52;;
20945;SDS011;10632;51.276;7.116;2022-10-31T04:36:23;4.45;;;1.40;;
20945;SDS011;10632;51.276;7.116;2022-10-31T04:38:51;3.53;;;1.25;;
20945;SDS011;10632;51.276;7.116;2022-10-31T04:41:18;3.60;;;1.63;;
20945;SDS011;10632;51.276;7.116;2022-10-31T04:43:45;3.15;;;1.35;;
20945;SDS011;10632;51.276;7.116;2022-10-31T04:46:12;3.75;;;1.42;;
20945;SDS011;10632;51.276;7.116;2022-10-31T04:48:39;2.38;;;1.15;;
20945;SDS011;10632;51.276;7.116;2022-10-31T04:51:06;4.22;;;1.38;;
20945;SDS011;10632;51.276;7.116;2022-10-31T04:53:32;3.22;;;1.45;;
20945;SDS011;10632;51.276;7.116;2022-10-31T04:56:01;5.28;;;1.58;;
20945;SDS011;10632;51.276;7.116;2022-10-31T04:58:28;4.85;;;1.63;;
20945;SDS011;10632;51.276;7.116;2022-10-31T05:00:55;5.45;;;1.63;;
20945;SDS011;10632;51.276;7.116;2022-10-31T05:03:22;3.78;;;1.40;;
20945;SDS011;10632;51.276;7.116;2022-10-31T05:05:49;3.42;;;1.30;;
20945;SDS011;10632;51.276;7.116;2022-10-31T05:08:16;3.65;;;1.25;;
20945;SDS011;10632;51.276;7.116;2022-10-31T05:10:43;2.25;;;1.13;;
20945;SDS011;10632;51.276;7.116;2022-10-31T05:13:11;4.68;;;1.60;;
20945;SDS011;10632;51.276;7.116;2022-10-31T05:15:39;3.08;;;1.45;;
20945;SDS011;10632;51.276;7.116;2022-10-31T05:18:10;4.88;;;1.90;;
20945;SDS011;10632;51.276;7.116;2022-10-31T05:20:39;3.90;;;1.70;;
20945;SDS011;10632;51.276;7.116;2022-10-31T05:23:06;5.40;;;1.70;;
20945;SDS011;10632;51.276;7.116;2022-10-31T05:25:32;4.85;;;1.65;;
20945;SDS011;10632;51.276;7.116;2022-10-31T05:27:59;4.88;;;1.80;;
20945;SDS011;10632;51.276;7.116;2022-10-31T05:30:28;6.25;;;1.27;;
20945;SDS011;10632;51.276;7.116;2022-10-31T05:32:56;14.18;;;1.88;;
20945;SDS011;10632;51.276;7.116;2022-10-31T05:35:24;3.13;;;1.58;;
20945;SDS011;10632;51.276;7.116;2022-10-31T05:37:52;4.88;;;1.95;;
20945;SDS011;10632;51.276;7.116;2022-10-31T05:40:19;4.47;;;1.77;;
20945;SDS011;10632;51.276;7.116;2022-10-31T05:42:50;6.55;;;1.88;;
20945;SDS011;10632;51.276;7.116;2022-10-31T05:45:17;5.18;;;1.80;;
20945;SDS011;10632;51.276;7.116;2022-10-31T05:47:51;2.75;;;1.30;;
20945;SDS011;10632;51.276;7.116;2022-10-31T05:50:18;6.10;;;2.05;;
20945;SDS011;10632;51.276;7.116;2022-10-31T05:52:45;7.57;;;1.75;;
20945;SDS011;10632;51.276;7.116;2022-10-31T05:55:12;4.40;;;2.03;;
20945;SDS011;10632;51.276;7.116;2022-10-31T05:57:39;4.20;;;1.58;;
20945;SDS011;10632;51.276;7.116;2022-10-31T06:00:07;7.70;;;2.55;;
20945;SDS011;10632;51.276;7.116;2022-10-31T06:02:35;9.18;;;2.08;;
20945;SDS011;10632;51.276;7.116;2022-10-31T06:05:04;5.82;;;2.25;;
20945;SDS011;10632;51.276;7.116;2022-10-31T06:07:34;6.78;;;2.05;;
20945;SDS011;10632;51.276;7.116;2022-10-31T06:10:03;14.63;;;2.85;;
20945;SDS011;10632;51.276;7.116;2022-10-31T06:12:31;6.20;;;2.00;;
20945;SDS011;10632;51.276;7.116;2022-10-31T06:15:02;5.07;;;1.90;;
20945;SDS011;10632;51.276;7.116;2022-10-31T06:17:30;6.57;;;2.47;;
20945;SDS011;10632;51.276;7.116;2022-10-31T06:19:57;3.15;;;1.85;;
20945;SDS011;10632;51.276;7.116;2022-10-31T06:22:26;7.32;;;1.90;;
20945;SDS011;10632;51.276;7.116;2022-10-31T06:24:53;7.00;;;1.80;;
20945;SDS011;10632;51.276;7.116;2022-10-31T06:27:20;8.73;;;2.65;;
20945;SDS011;10632;51.276;7.116;2022-10-31T06:29:46;9.02;;;2.55;;
20945;SDS011;10632;51.276;7.116;2022-10-31T06:32:14;5.35;;;2.80;;
20945;SDS011;10632;51.276;7.116;2022-10-31T06:34:41;4.15;;;1.65;;
20945;SDS011;10632;51.276;7.116;2022-10-31T06:37:08;4.75;;;2.15;;
20945;SDS011;10632;51.276;7.116;2022-10-31T06:39:38;5.53;;;1.90;;
20945;SDS011;10632;51.276;7.116;2022-10-31T06:42:05;4.72;;;2.45;;
20945;SDS011;10632;51.276;7.116;2022-10-31T06:44:32;5.15;;;2.67;;
20945;SDS011;10632;51.276;7.116;2022-10-31T06:46:59;5.30;;;2.03;;
20945;SDS011;10632;51.276;7.116;2022-10-31T06:49:26;10.55;;;2.20;;
20945;SDS011;10632;51.276;7.116;2022-10-31T06:51:53;4.88;;;2.30;;
20945;SDS011;10632;51.276;7.116;2022-10-31T06:54:19;6.53;;;2.53;;
20945;SDS011;10632;51.276;7.116;2022-10-31T06:56:48;6.38;;;2.20;;
20945;SDS011;10632;51.276;7.116;2022-10-31T06:59:15;11.55;;;1.67;;
20945;SDS011;10632;51.276;7.116;2022-10-31T07:01:42;8.55;;;3.30;;
20945;SDS011;10632;51.276;7.116;2022-10-31T07:04:09;7.45;;;2.65;;
20945;SDS011;10632;51.276;7.116;2022-10-31T07:06:37;9.38;;;2.63;;
20945;SDS011;10632;51.276;7.116;2022-10-31T07:09:04;9.35;;;2.35;;
20945;SDS011;10632;51.276;7.116;2022-10-31T07:11:31;5.65;;;2.63;;
20945;SDS011;10632;51.276;7.116;2022-10-31T07:13:59;6.40;;;2.15;;
20945;SDS011;10632;51.276;7.116;2022-10-31T07:16:26;7.65;;;2.88;;
20945;SDS011;10632;51.276;7.116;2022-10-31T07:18:53;14.25;;;2.67;;
20945;SDS011;10632;51.276;7.116;2022-10-31T07:21:20;6.30;;;2.10;;
20945;SDS011;10632;51.276;7.116;2022-10-31T07:23:47;7.13;;;2.67;;
20945;SDS011;10632;51.276;7.116;2022-10-31T07:26:14;9.30;;;2.88;;
20945;SDS011;10632;51.276;7.116;2022-10-31T07:28:41;7.57;;;2.90;;
20945;SDS011;10632;51.276;7.116;2022-10-31T07:31:10;5.38;;;2.05;;
20945;SDS011;10632;51.276;7.116;2022-10-31T07:33:36;5.85;;;2.42;;
20945;SDS011;10632;51.276;7.116;2022-10-31T07:36:04;13.25;;;3.15;;
20945;SDS011;10632;51.276;7.116;2022-10-31T07:38:31;6.85;;;2.72;;
20945;SDS011;10632;51.276;7.116;2022-10-31T07:40:58;7.38;;;2.50;;
20945;SDS011;10632;51.276;7.116;2022-10-31T07:43:25;9.45;;;2.67;;
20945;SDS011;10632;51.276;7.116;2022-10-31T07:45:52;9.68;;;2.70;;
20945;SDS011;10632;51.276;7.116;2022-10-31T07:48:20;8.10;;;2.80;;
20945;SDS011;10632;51.276;7.116;2022-10-31T07:50:47;4.70;;;2.05;;
20945;SDS011;10632;51.276;7.116;2022-10-31T07:53:14;8.05;;;2.75;;
20945;SDS011;10632;51.276;7.116;2022-10-31T07:55:43;9.52;;;3.15;;
20945;SDS011;10632;51.276;7.116;2022-10-31T07:58:10;12.00;;;3.80;;
20945;SDS011;10632;51.276;7.116;2022-10-31T08:00:39;8.50;;;2.83;;
20945;SDS011;10632;51.276;7.116;2022-10-31T08:03:08;10.13;;;2.53;;
20945;SDS011;10632;51.276;7.116;2022-10-31T08:05:38;5.93;;;2.17;;
20945;SDS011;10632;51.276;7.116;2022-10-31T08:08:05;12.55;;;3.67;;
20945;SDS011;10632;51.276;7.116;2022-10-31T08:10:33;10.05;;;3.25;;
20945;SDS011;10632;51.276;7.116;2022-10-31T08:13:01;10.15;;;3.90;;
20945;SDS011;10632;51.276;7.116;2022-10-31T08:15:30;8.98;;;3.35;;
20945;SDS011;10632;51.276;7.116;2022-10-31T08:17:57;10.07;;;2.92;;
20945;SDS011;10632;51.276;7.116;2022-10-31T08:20:24;13.10;;;3.60;;
20945;SDS011;10632;51.276;7.116;2022-10-31T08:22:56;11.68;;;3.45;;
20945;SDS011;10632;51.276;7.116;2022-10-31T08:25:24;11.02;;;2.95;;
20945;SDS011;10632;51.276;7.116;2022-10-31T08:27:52;8.90;;;2.80;;
20945;SDS011;10632;51.276;7.116;2022-10-31T08:30:21;11.63;;;3.35;;
20945;SDS011;10632;51.276;7.116;2022-10-31T08:32:56;11.73;;;3.42;;
20945;SDS011;10632;51.276;7.116;2022-10-31T08:35:24;15.38;;;3.65;;
20945;SDS011;10632;51.276;7.116;2022-10-31T08:37:51;9.88;;;2.53;;
20945;SDS011;10632;51.276;7.116;2022-10-31T08:40:20;11.23;;;3.80;;
20945;SDS011;10632;51.276;7.116;2022-10-31T08:42:54;16.83;;;3.35;;
20945;SDS011;10632;51.276;7.116;2022-10-31T08:45:22;11.63;;;3.38;;
20945;SDS011;10632;51.276;7.116;2022-10-31T08:47:49;9.88;;;3.83;;
20945;SDS011;10632;51.276;7.116;2022-10-31T08:50:16;7.55;;;2.83;;
20945;SDS011;10632;51.276;7.116;2022-10-31T08:52:42;7.88;;;2.78;;
20945;SDS011;10632;51.276;7.116;2022-10-31T08:55:09;8.98;;;3.25;;
20945;SDS011;10632;51.276;7.116;2022-10-31T08:57:37;12.65;;;3.97;;
20945;SDS011;10632;51.276;7.116;2022-10-31T09:00:05;7.75;;;2.90;;
20945;SDS011;10632;51.276;7.116;2022-10-31T09:02:33;9.65;;;3.85;;
20945;SDS011;10632;51.276;7.116;2022-10-31T09:04:59;11.68;;;3.70;;
20945;SDS011;10632;51.276;7.116;2022-10-31T09:07:26;9.45;;;3.17;;
20945;SDS011;10632;51.276;7.116;2022-10-31T09:09:53;17.98;;;3.13;;
20945;SDS011;10632;51.276;7.116;2022-10-31T09:12:21;13.27;;;3.13;;
20945;SDS011;10632;51.276;7.116;2022-10-31T09:14:50;7.90;;;2.55;;
20945;SDS011;10632;51.276;7.116;2022-10-31T09:17:17;5.95;;;2.28;;
20945;SDS011;10632;51.276;7.116;2022-10-31T09:19:44;11.27;;;3.10;;
20945;SDS011;10632;51.276;7.116;2022-10-31T09:22:11;8.68;;;3.28;;
20945;SDS011;10632;51.276;7.116;2022-10-31T09:24:38;11.40;;;3.63;;
20945;SDS011;10632;51.276;7.116;2022-10-31T09:27:05;14.68;;;3.45;;
20945;SDS011;10632;51.276;7.116;2022-10-31T09:29:33;12.23;;;3.78;;
20945;SDS011;10632;51.276;7.116;2022-10-31T09:32:01;9.20;;;3.22;;
20945;SDS011;10632;51.276;7.116;2022-10-31T09:34:28;7.35;;;2.70;;
20945;SDS011;10632;51.276;7.116;2022-10-31T09:36:55;7.47;;;2.45;;
20945;SDS011;10632;51.276;7.116;2022-10-31T09:39:22;7.60;;;2.80;;
20945;SDS011;10632;51.276;7.116;2022-10-31T09:41:52;9.68;;;3.13;;
20945;SDS011;10632;51.276;7.116;2022-10-31T09:44:38;6.72;;;2.10;;
20945;SDS011;10632;51.276;7.116;2022-10-31T09:47:16;7.90;;;2.42;;
20945;SDS011;10632;51.276;7.116;2022-10-31T09:49:57;8.25;;;2.42;;
20945;SDS011;10632;51.276;7.116;2022-10-31T09:52:33;10.52;;;3.15;;
20945;SDS011;10632;51.276;7.116;2022-10-31T09:55:04;8.48;;;2.80;;
20945;SDS011;10632;51.276;7.116;2022-10-31T09:57:39;6.95;;;2.63;;
20945;SDS011;10632;51.276;7.116;2022-10-31T10:00:11;12.27;;;2.67;;
20945;SDS011;10632;51.276;7.116;2022-10-31T10:02:44;6.90;;;2.85;;
20945;SDS011;10632;51.276;7.116;2022-10-31T10:05:18;7.10;;;2.78;;
20945;SDS011;10632;51.276;7.116;2022-10-31T10:07:53;9.70;;;2.65;;
20945;SDS011;10632;51.276;7.116;2022-10-31T10:10:27;18.65;;;2.97;;
20945;SDS011;10632;51.276;7.116;2022-10-31T10:13:16;6.68;;;2.70;;
20945;SDS011;10632;51.276;7.116;2022-10-31T10:16:02;7.00;;;2.75;;
20945;SDS011;10632;51.276;7.116;2022-10-31T10:18:43;7.22;;;2.42;;
20945;SDS011;10632;51.276;7.116;2022-10-31T10:21:21;8.88;;;2.85;;
20945;SDS011;10632;51.276;7.116;2022-10-31T10:23:56;12.00;;;2.85;;
20945;SDS011;10632;51.276;7.116;2022-10-31T10:26:34;15.07;;;2.60;;
20945;SDS011;10632;51.276;7.116;2022-10-31T10:29:16;7.38;;;2.22;;
20945;SDS011;10632;51.276;7.116;2022-10-31T10:31:51;9.90;;;2.58;;
20945;SDS011;10632;51.276;7.116;2022-10-31T10:34:23;11.90;;;1.92;;
20945;SDS011;10632;51.276;7.116;2022-10-31T10:37:01;12.68;;;2.72;;
20945;SDS011;10632;51.276;7.116;2022-10-31T10:39:36;5.93;;;1.98;;
20945;SDS011;10632;51.276;7.116;2022-10-31T10:42:10;6.00;;;2.28;;
20945;SDS011;10632;51.276;7.116;2022-10-31T10:44:56;5.43;;;2.30;;
20945;SDS011;10632;51.276;7.116;2022-10-31T10:47:42;9.10;;;2.42;;
20945;SDS011;10632;51.276;7.116;2022-10-31T10:50:12;9.23;;;1.80;;
20945;SDS011;10632;51.276;7.116;2022-10-31T10:52:47;5.18;;;1.85;;
20945;SDS011;10632;51.276;7.116;2022-10-31T10:55:26;4.03;;;1.73;;
20945;SDS011;10632;51.276;7.116;2022-10-31T10:58:00;12.73;;;1.90;;
20945;SDS011;10632;51.276;7.116;2022-10-31T11:00:30;5.28;;;1.45;;
20945;SDS011;10632;51.276;7.116;2022-10-31T11:03:00;4.35;;;2.08;;
20945;SDS011;10632;51.276;7.116;2022-10-31T11:05:29;6.45;;;1.63;;
20945;SDS011;10632;51.276;7.116;2022-10-31T11:08:01;4.85;;;1.88;;
20945;SDS011;10632;51.276;7.116;2022-10-31T11:10:29;6.15;;;1.67;;
20945;SDS011;10632;51.276;7.116;2022-10-31T11:13:04;4.60;;;1.63;;
20945;SDS011;10632;51.276;7.116;2022-10-31T11:15:50;6.00;;;1.33;;
20945;SDS011;10632;51.276;7.116;2022-10-31T11:18:22;3.50;;;1.33;;
20945;SDS011;10632;51.276;7.116;2022-10-31T11:20:52;8.80;;;1.63;;
20945;SDS011;10632;51.276;7.116;2022-10-31T11:23:22;7.32;;;2.05;;
20945;SDS011;10632;51.276;7.116;2022-10-31T11:25:52;3.10;;;1.17;;
20945;SDS011;10632;51.276;7.116;2022-10-31T11:28:21;7.72;;;2.10;;
20945;SDS011;10632;51.276;7.116;2022-10-31T11:30:48;7.75;;;2.08;;
20945;SDS011;10632;51.276;7.116;2022-10-31T11:33:24;4.93;;;1.55;;
20945;SDS011;10632;51.276;7.116;2022-10-31T11:35:54;6.13;;;1.52;;
20945;SDS011;10632;51.276;7.116;2022-10-31T11:38:24;4.05;;;1.30;;
20945;SDS011;10632;51.276;7.116;2022-10-31T11:40:56;3.72;;;1.52;;
20945;SDS011;10632;51.276;7.116;2022-10-31T11:43:26;3.88;;;1.30;;
20945;SDS011;10632;51.276;7.116;2022-10-31T11:45:53;6.53;;;1.42;;
20945;SDS011;10632;51.276;7.116;2022-10-31T11:48:21;3.88;;;1.25;;
20945;SDS011;10632;51.276;7.116;2022-10-31T11:50:50;3.92;;;1.20;;
20945;SDS011;10632;51.276;7.116;2022-10-31T11:53:21;2.80;;;1.25;;
20945;SDS011;10632;51.276;7.116;2022-10-31T11:55:59;3.60;;;1.27;;
20945;SDS011;10632;51.276;7.116;2022-10-31T11:58:30;3.97;;;1.02;;
20945;SDS011;10632;51.276;7.116;2022-10-31T12:00:57;8.80;;;1.40;;
20945;SDS011;10632;51.276;7.116;2022-10-31T12:03:40;5.78;;;1.48;;
20945;SDS011;10632;51.276;7.116;2022-10-31T12:06:16;4.70;;;1.10;;
20945;SDS011;10632;51.276;7.116;2022-10-31T12:08:48;3.63;;;1.17;;
20945;SDS011;10632;51.276;7.116;2022-10-31T12:11:19;7.95;;;1.52;;
20945;SDS011;10632;51.276;7.116;2022-10-31T12:14:02;10.68;;;1.70;;
20945;SDS011;10632;51.276;7.116;2022-10-31T12:16:46;6.20;;;0.88;;
20945;SDS011;10632;51.276;7.116;2022-10-31T12:19:24;5.95;;;1.27;;
20945;SDS011;10632;51.276;7.116;2022-10-31T12:22:01;10.60;;;1.23;;
20945;SDS011;10632;51.276;7.116;2022-10-31T12:24:48;4.28;;;1.08;;
20945;SDS011;10632;51.276;7.116;2022-10-31T12:27:43;2.65;;;1.10;;
20945;SDS011;10632;51.276;7.116;2022-10-31T12:30:21;5.75;;;1.63;;
20945;SDS011;10632;51.276;7.116;2022-10-31T12:32:58;5.70;;;1.40;;
20945;SDS011;10632;51.276;7.116;2022-10-31T12:35:44;4.82;;;1.58;;
20945;SDS011;10632;51.276;7.116;2022-10-31T12:38:28;3.38;;;1.10;;
20945;SDS011;10632;51.276;7.116;2022-10-31T12:41:17;5.43;;;1.25;;
20945;SDS011;10632;51.276;7.116;2022-10-31T12:44:06;4.65;;;1.27;;
20945;SDS011;10632;51.276;7.116;2022-10-31T12:46:51;3.90;;;1.13;;
20945;SDS011;10632;51.276;7.116;2022-10-31T12:49:37;7.82;;;1.30;;
20945;SDS011;10632;51.276;7.116;2022-10-31T12:52:19;4.38;;;1.15;;
20945;SDS011;10632;51.276;7.116;2022-10-31T12:55:09;3.83;;;1.30;;
20945;SDS011;10632;51.276;7.116;2022-10-31T12:58:00;6.90;;;1.48;;
20945;SDS011;10632;51.276;7.116;2022-10-31T13:00:30;4.38;;;1.05;;
20945;SDS011;10632;51.276;7.116;2022-10-31T13:03:02;7.95;;;1.23;;
20945;SDS011;10632;51.276;7.116;2022-10-31T13:05:41;4.95;;;1.00;;
20945;SDS011;10632;51.276;7.116;2022-10-31T13:08:11;3.35;;;1.15;;
20945;SDS011;10632;51.276;7.116;2022-10-31T13:10:42;4.65;;;1.20;;
20945;SDS011;10632;51.276;7.116;2022-10-31T13:13:13;3.78;;;1.10;;
20945;SDS011;10632;51.276;7.116;2022-10-31T13:15:46;4.53;;;1.15;;
20945;SDS011;10632;51.276;7.116;2022-10-31T13:18:21;1.95;;;1.00;;
20945;SDS011;10632;51.276;7.116;2022-10-31T13:20:53;2.95;;;1.10;;
20945;SDS011;10632;51.276;7.116;2022-10-31T13:23:26;4.88;;;1.02;;
20945;SDS011;10632;51.276;7.116;2022-10-31T13:25:56;4.10;;;1.25;;
20945;SDS011;10632;51.276;7.116;2022-10-31T13:28:28;4.35;;;1.20;;
20945;SDS011;10632;51.276;7.116;2022-10-31T13:31:07;3.17;;;1.20;;
20945;SDS011;10632;51.276;7.116;2022-10-31T13:33:38;3.83;;;1.00;;
20945;SDS011;10632;51.276;7.116;2022-10-31T13:36:11;4.25;;;1.00;;
20945;SDS011;10632;51.276;7.116;2022-10-31T13:38:47;8.93;;;1.20;;
20945;SDS011;10632;51.276;7.116;2022-10-31T13:41:21;3.25;;;1.30;;
20945;SDS011;10632;51.276;7.116;2022-10-31T13:44:00;2.85;;;1.15;;
20945;SDS011;10632;51.276;7.116;2022-10-31T13:46:36;2.65;;;0.95;;
20945;SDS011;10632;51.276;7.116;2022-10-31T13:49:04;3.17;;;1.10;;
20945;SDS011;10632;51.276;7.116;2022-10-31T13:52:05;4.03;;;1.33;;
20945;SDS011;10632;51.276;7.116;2022-10-31T13:54:40;3.90;;;1.30;;
20945;SDS011;10632;51.276;7.116;2022-10-31T13:57:13;1.88;;;1.10;;
20945;SDS011;10632;51.276;7.116;2022-10-31T13:59:47;2.75;;;1.10;;
20945;SDS011;10632;51.276;7.116;2022-10-31T14:02:18;2.83;;;1.08;;
20945;SDS011;10632;51.276;7.116;2022-10-31T14:04:54;2.88;;;1.20;;
20945;SDS011;10632;51.276;7.116;2022-10-31T14:07:25;5.50;;;1.30;;
20945;SDS011;10632;51.276;7.116;2022-10-31T14:09:54;3.50;;;1.23;;
20945;SDS011;10632;51.276;7.116;2022-10-31T14:12:24;3.42;;;1.20;;
20945;SDS011;10632;51.276;7.116;2022-10-31T14:14:57;3.65;;;1.35;;
20945;SDS011;10632;51.276;7.116;2022-10-31T14:17:31;2.50;;;1.08;;
20945;SDS011;10632;51.276;7.116;2022-10-31T14:20:24;5.22;;;1.95;;
20945;SDS011;10632;51.276;7.116;2022-10-31T14:23:09;5.47;;;1.20;;
20945;SDS011;10632;51.276;7.116;2022-10-31T14:25:38;12.45;;;1.27;;
20945;SDS011;10632;51.276;7.116;2022-10-31T14:28:17;4.22;;;1.05;;
20945;SDS011;10632;51.276;7.116;2022-10-31T14:30:52;4.00;;;1.60;;
20945;SDS011;10632;51.276;7.116;2022-10-31T14:33:19;5.65;;;1.42;;
20945;SDS011;10632;51.276;7.116;2022-10-31T14:35:51;2.67;;;1.08;;
20945;SDS011;10632;51.276;7.116;2022-10-31T14:38:35;5.90;;;1.15;;
20945;SDS011;10632;51.276;7.116;2022-10-31T14:41:25;3.75;;;1.30;;
20945;SDS011;10632;51.276;7.116;2022-10-31T14:44:08;3.15;;;1.40;;
20945;SDS011;10632;51.276;7.116;2022-10-31T14:46:49;2.65;;;1.30;;
20945;SDS011;10632;51.276;7.116;2022-10-31T14:49:37;4.18;;;1.10;;
20945;SDS011;10632;51.276;7.116;2022-10-31T14:52:16;3.53;;;1.10;;
20945;SDS011;10632;51.276;7.116;2022-10-31T14:54:48;2.78;;;1.05;;
20945;SDS011;10632;51.276;7.116;2022-10-31T14:57:20;4.13;;;1.10;;
20945;SDS011;10632;51.276;7.116;2022-10-31T14:59:54;6.05;;;1.25;;
20945;SDS011;10632;51.276;7.116;2022-10-31T15:02:26;2.47;;;1.10;;
20945;SDS011;10632;51.276;7.116;2022-10-31T15:04:59;4.90;;;0.85;;
20945;SDS011;10632;51.276;7.116;2022-10-31T15:07:27;2.55;;;1.13;;
20945;SDS011;10632;51.276;7.116;2022-10-31T15:09:55;6.60;;;1.15;;
20945;SDS011;10632;51.276;7.116;2022-10-31T15:12:25;5.15;;;1.55;;
20945;SDS011;10632;51.276;7.116;2022-10-31T15:14:53;9.68;;;1.65;;
20945;SDS011;10632;51.276;7.116;2022-10-31T15:17:21;3.25;;;1.05;;